createdAt,value
2022-10-02T00:01:23.626Z,12.21
2022-10-02T00:03:50.086Z,12.22
2022-10-02T00:06:20.600Z,12.31
2022-10-02T00:08:48.641Z,12.26
2022-10-02T00:11:20.406Z,12.30
2022-10-02T00:13:51.606Z,12.53
2022-10-02T00:16:31.851Z,12.43
2022-10-02T00:18:58.643Z,12.36
2022-10-02T00:21:32.501Z,12.45
2022-10-02T00:24:00.180Z,12.41
2022-10-02T00:26:29.362Z,12.44
2022-10-02T00:29:08.191Z,12.39
2022-10-02T00:31:41.420Z,12.49
2022-10-02T00:34:09.121Z,12.43
2022-10-02T00:36:43.169Z,12.48
2022-10-02T00:39:27.228Z,12.48
2022-10-02T00:42:06.268Z,12.38
2022-10-02T00:44:43.444Z,12.54
2022-10-02T00:47:15.700Z,12.49
2022-10-02T00:49:51.252Z,12.45
2022-10-02T00:52:36.470Z,12.49
2022-10-02T00:55:32.239Z,12.51
2022-10-02T00:58:19.800Z,12.54
2022-10-02T01:00:53.430Z,12.42
2022-10-02T01:03:37.705Z,12.48
2022-10-02T01:06:04.227Z,12.49
2022-10-02T01:08:31.115Z,12.59
2022-10-02T01:10:57.603Z,12.52
2022-10-02T01:13:24.252Z,12.71
2022-10-02T01:15:56.951Z,12.74
2022-10-02T01:18:23.316Z,12.77
2022-10-02T01:20:52.438Z,12.55
2022-10-02T01:23:30.652Z,12.56
2022-10-02T01:25:57.819Z,12.75
2022-10-02T01:28:24.368Z,12.75
2022-10-02T01:30:53.166Z,12.76
2022-10-02T01:33:19.685Z,12.64
2022-10-02T01:35:46.227Z,12.79
2022-10-02T01:38:14.529Z,12.78
2022-10-02T01:40:41.470Z,12.57
2022-10-02T01:43:12.324Z,12.67
2022-10-02T01:45:41.700Z,12.89
2022-10-02T01:48:22.716Z,12.84
2022-10-02T01:51:02.416Z,12.77
2022-10-02T01:53:50.464Z,12.75
2022-10-02T01:56:22.852Z,12.76
2022-10-02T01:59:08.114Z,12.83
2022-10-02T02:01:43.571Z,12.85
2022-10-02T02:04:09.886Z,12.82
2022-10-02T02:06:39.435Z,12.87
2022-10-02T02:09:09.654Z,12.90
2022-10-02T02:11:38.534Z,12.84
2022-10-02T02:14:22.641Z,12.89
2022-10-02T02:16:51.959Z,12.78
2022-10-02T02:19:21.195Z,12.84
2022-10-02T02:21:47.515Z,12.95
2022-10-02T02:24:15.874Z,12.82
2022-10-02T02:26:44.701Z,12.83
2022-10-02T02:29:11.990Z,12.88
2022-10-02T02:31:47.893Z,12.81
2022-10-02T02:34:16.722Z,12.83
2022-10-02T02:36:44.790Z,12.85
2022-10-02T02:39:15.015Z,12.97
2022-10-02T02:41:47.727Z,12.99
2022-10-02T02:44:21.621Z,12.78
2022-10-02T02:47:03.683Z,12.91
2022-10-02T02:49:42.300Z,12.92
2022-10-02T02:52:11.372Z,12.75
2022-10-02T02:54:41.336Z,12.83
2022-10-02T02:57:08.921Z,12.90
2022-10-02T02:59:35.971Z,13.04
2022-10-02T03:02:02.425Z,13.03
2022-10-02T03:04:28.815Z,13.01
2022-10-02T03:06:58.363Z,12.96
2022-10-02T03:09:26.020Z,12.89
2022-10-02T03:12:02.699Z,13.06
2022-10-02T03:14:35.117Z,12.99
2022-10-02T03:17:10.797Z,12.97
2022-10-02T03:19:55.870Z,13.09
2022-10-02T03:22:45.422Z,13.09
2022-10-02T03:25:31.841Z,13.09
2022-10-02T03:28:31.832Z,13.20
2022-10-02T03:31:05.133Z,13.08
2022-10-02T03:33:32.713Z,13.02
2022-10-02T03:35:59.535Z,12.98
2022-10-02T03:38:27.943Z,12.94
2022-10-02T03:40:57.930Z,12.91
2022-10-02T03:43:25.181Z,12.76
2022-10-02T03:45:52.143Z,12.90
2022-10-02T03:48:18.798Z,12.89
2022-10-02T03:50:45.265Z,12.86
2022-10-02T03:53:15.889Z,12.74
2022-10-02T03:55:52.217Z,12.80
2022-10-02T03:58:18.732Z,12.77
2022-10-02T04:00:51.012Z,12.86
2022-10-02T04:03:22.752Z,12.76
2022-10-02T04:05:55.246Z,12.89
2022-10-02T04:08:24.987Z,13.07
2022-10-02T04:11:03.264Z,12.81
2022-10-02T04:13:29.986Z,12.88
2022-10-02T04:15:56.360Z,12.92
2022-10-02T04:18:25.752Z,12.95
2022-10-02T04:20:55.067Z,13.06
2022-10-02T04:23:28.635Z,12.98
2022-10-02T04:26:01.049Z,12.92
2022-10-02T04:28:32.167Z,13.06
2022-10-02T04:31:00.649Z,12.95
2022-10-02T04:33:27.041Z,13.05
2022-10-02T04:36:06.984Z,12.92
2022-10-02T04:38:39.141Z,12.90
2022-10-02T04:41:05.464Z,12.97
2022-10-02T04:43:45.897Z,12.95
2022-10-02T04:46:21.546Z,13.09
2022-10-02T04:48:50.915Z,12.98
2022-10-02T04:51:36.212Z,13.03
2022-10-02T04:54:02.519Z,13.03
2022-10-02T04:56:52.456Z,12.96
2022-10-02T04:59:30.796Z,12.93
2022-10-02T05:02:16.076Z,13.02
2022-10-02T05:04:42.404Z,13.01
2022-10-02T05:07:20.991Z,12.97
2022-10-02T05:09:56.343Z,13.01
2022-10-02T05:12:42.401Z,13.01
2022-10-02T05:15:15.067Z,13.03
2022-10-02T05:18:02.481Z,12.96
2022-10-02T05:20:39.243Z,12.77
2022-10-02T05:23:28.849Z,12.99
2022-10-02T05:26:01.898Z,13.13
2022-10-02T05:28:34.187Z,13.14
2022-10-02T05:31:23.118Z,12.96
2022-10-02T05:34:15.303Z,13.15
2022-10-02T05:37:08.202Z,12.98
2022-10-02T05:39:37.556Z,13.05
2022-10-02T05:42:25.604Z,13.09
2022-10-02T05:44:55.969Z,13.04
2022-10-02T05:47:22.324Z,12.94
2022-10-02T05:49:52.813Z,13.03
2022-10-02T05:52:21.488Z,12.95
2022-10-02T05:55:00.131Z,13.00
2022-10-02T05:57:35.443Z,13.08
2022-10-02T06:00:05.067Z,12.91
2022-10-02T06:02:57.445Z,13.04
2022-10-02T06:05:29.106Z,13.07
2022-10-02T06:07:57.758Z,13.11
2022-10-02T06:10:28.058Z,13.22
2022-10-02T06:13:02.214Z,13.16
2022-10-02T06:15:36.898Z,13.06
2022-10-02T06:18:05.120Z,13.17
2022-10-02T06:20:40.536Z,13.15
2022-10-02T06:23:16.003Z,13.16
2022-10-02T06:25:44.707Z,13.18
2022-10-02T06:28:15.605Z,13.24
2022-10-02T06:30:45.869Z,13.20
2022-10-02T06:33:20.775Z,13.16
2022-10-02T06:35:47.089Z,13.25
2022-10-02T06:38:33.698Z,13.25
2022-10-02T06:41:27.514Z,13.32
2022-10-02T06:44:16.870Z,13.48
2022-10-02T06:46:56.861Z,13.42
2022-10-02T06:49:33.491Z,13.41
2022-10-02T06:52:18.358Z,13.38
2022-10-02T06:54:53.371Z,13.49
2022-10-02T06:57:26.365Z,13.41
2022-10-02T07:00:14.687Z,13.44
2022-10-02T07:02:59.819Z,13.58
2022-10-02T07:05:35.335Z,13.63
2022-10-02T07:08:10.117Z,13.62
2022-10-02T07:10:39.324Z,13.57
2022-10-02T07:13:27.415Z,13.65
2022-10-02T07:16:08.988Z,13.43
2022-10-02T07:18:35.395Z,13.78
2022-10-02T07:21:01.762Z,13.79
2022-10-02T07:23:28.107Z,13.72
2022-10-02T07:26:02.758Z,13.77
2022-10-02T07:28:29.211Z,13.71
2022-10-02T07:30:59.671Z,13.75
2022-10-02T07:33:36.193Z,13.76
2022-10-02T07:36:08.404Z,13.61
2022-10-02T07:38:44.788Z,13.73
2022-10-02T07:41:19.275Z,13.83
2022-10-02T07:44:03.061Z,13.76
2022-10-02T07:46:35.608Z,13.77
2022-10-02T07:49:08.215Z,13.91
2022-10-02T07:51:49.769Z,13.89
2022-10-02T07:54:35.020Z,13.86
2022-10-02T07:57:12.976Z,13.81
2022-10-02T07:59:40.607Z,13.91
2022-10-02T08:02:13.110Z,13.97
2022-10-02T08:04:39.562Z,14.01
2022-10-02T08:07:06.681Z,13.90
2022-10-02T08:09:42.738Z,13.93
2022-10-02T08:12:22.323Z,13.99
2022-10-02T08:14:50.566Z,14.06
2022-10-02T08:17:16.881Z,13.97
2022-10-02T08:19:49.489Z,14.00
2022-10-02T08:22:23.593Z,14.08
2022-10-02T08:24:53.663Z,14.14
2022-10-02T08:27:22.747Z,14.10
2022-10-02T08:29:53.614Z,14.26
2022-10-02T08:32:22.482Z,14.29
2022-10-02T08:34:49.102Z,14.29
2022-10-02T08:37:18.351Z,14.33
2022-10-02T08:39:50.780Z,14.36
2022-10-02T08:42:20.186Z,14.35
2022-10-02T08:44:52.781Z,14.48
2022-10-02T08:47:48.698Z,14.42
2022-10-02T08:50:21.272Z,14.41
2022-10-02T08:52:47.630Z,14.42
2022-10-02T08:55:17.059Z,14.39
2022-10-02T08:57:58.727Z,14.40
2022-10-02T09:00:44.479Z,14.33
2022-10-02T09:03:29.967Z,14.37
2022-10-02T09:06:08.235Z,14.35
2022-10-02T09:08:34.606Z,14.35
2022-10-02T09:11:21.727Z,14.32
2022-10-02T09:14:05.673Z,14.35
2022-10-02T09:16:41.361Z,14.36
2022-10-02T09:19:27.992Z,14.39
2022-10-02T09:21:58.986Z,14.40
2022-10-02T09:25:01.305Z,14.53
2022-10-02T09:27:38.777Z,14.39
2022-10-02T09:30:15.733Z,14.37
2022-10-02T09:32:43.227Z,14.50
2022-10-02T09:35:12.381Z,14.55
2022-10-02T09:37:59.289Z,14.54
2022-10-02T09:40:29.386Z,14.67
2022-10-02T09:42:58.503Z,14.73
2022-10-02T09:45:44.043Z,14.81
2022-10-02T09:48:30.336Z,14.86
2022-10-02T09:51:04.585Z,14.92
2022-10-02T09:53:38.394Z,15.01
2022-10-02T09:56:04.763Z,15.06
2022-10-02T09:58:35.058Z,15.15
2022-10-02T10:01:04.704Z,15.11
2022-10-02T10:03:40.164Z,15.17
2022-10-02T10:06:25.582Z,15.17
2022-10-02T10:08:55.030Z,15.23
2022-10-02T10:11:21.437Z,15.18
2022-10-02T10:14:14.314Z,15.18
2022-10-02T10:16:41.232Z,15.23
2022-10-02T10:19:26.380Z,15.16
2022-10-02T10:21:58.920Z,15.30
2022-10-02T10:24:44.976Z,15.29
2022-10-02T10:27:14.098Z,15.42
2022-10-02T10:29:45.195Z,15.59
2022-10-02T10:32:21.048Z,15.62
2022-10-02T10:34:50.435Z,15.73
2022-10-02T10:37:51.080Z,15.71
2022-10-02T10:40:38.608Z,15.81
2022-10-02T10:43:20.375Z,15.73
2022-10-02T10:45:54.477Z,15.71
2022-10-02T10:48:39.538Z,15.74
2022-10-02T10:51:14.206Z,15.78
2022-10-02T10:54:02.158Z,15.82
2022-10-02T10:56:28.611Z,15.74
2022-10-02T10:58:54.931Z,15.82
2022-10-02T11:01:38.455Z,15.95
2022-10-02T11:04:07.822Z,16.13
2022-10-02T11:06:37.158Z,16.17
2022-10-02T11:09:15.206Z,16.33
2022-10-02T11:11:50.660Z,16.46
2022-10-02T11:14:17.252Z,16.45
2022-10-02T11:17:01.968Z,16.32
2022-10-02T11:19:47.698Z,16.27
2022-10-02T11:22:31.024Z,16.32
2022-10-02T11:25:13.261Z,16.41
2022-10-02T11:27:58.680Z,16.50
2022-10-02T11:30:32.386Z,16.54
2022-10-02T11:33:17.093Z,16.49
2022-10-02T11:35:48.893Z,16.36
2022-10-02T11:38:15.207Z,16.33
2022-10-02T11:40:44.627Z,16.41
2022-10-02T11:43:29.923Z,16.50
2022-10-02T11:46:00.000Z,16.67
2022-10-02T11:48:34.643Z,16.63
2022-10-02T11:51:09.937Z,16.45
2022-10-02T11:54:02.604Z,16.44
2022-10-02T11:56:35.515Z,16.54
2022-10-02T11:59:01.844Z,16.56
2022-10-02T12:01:47.381Z,16.58
2022-10-02T12:04:22.218Z,16.55
2022-10-02T12:06:57.626Z,16.56
2022-10-02T12:09:26.975Z,16.54
2022-10-02T12:12:06.289Z,16.43
2022-10-02T12:14:44.836Z,16.55
2022-10-02T12:17:11.164Z,16.46
2022-10-02T12:20:11.633Z,16.56
2022-10-02T12:23:12.656Z,16.68
2022-10-02T12:26:09.937Z,16.70
2022-10-02T12:28:50.418Z,16.78
2022-10-02T12:31:16.820Z,16.85
2022-10-02T12:33:59.828Z,16.94
2022-10-02T12:36:33.945Z,17.12
2022-10-02T12:39:03.076Z,17.26
2022-10-02T12:41:39.103Z,17.30
2022-10-02T12:44:16.974Z,17.36
2022-10-02T12:46:49.250Z,17.32
2022-10-02T12:49:21.777Z,17.27
2022-10-02T12:51:57.308Z,17.39
2022-10-02T12:54:33.219Z,17.39
2022-10-02T12:57:05.581Z,17.38
2022-10-02T12:59:35.069Z,17.28
2022-10-02T13:02:26.432Z,17.25
2022-10-02T13:05:14.896Z,17.20
2022-10-02T13:07:44.445Z,17.13
2022-10-02T13:10:27.996Z,17.26
2022-10-02T13:13:09.511Z,17.16
2022-10-02T13:15:46.604Z,17.25
2022-10-02T13:18:28.246Z,17.24
2022-10-02T13:21:04.890Z,17.32
2022-10-02T13:23:43.410Z,17.19
2022-10-02T13:26:29.699Z,17.20
2022-10-02T13:29:14.896Z,17.18
2022-10-02T13:31:47.380Z,17.25
2022-10-02T13:34:38.213Z,17.18
2022-10-02T13:37:04.924Z,17.12
2022-10-02T13:39:37.439Z,17.29
2022-10-02T13:42:07.014Z,17.35
2022-10-02T13:44:47.027Z,17.35
2022-10-02T13:47:22.498Z,17.44
2022-10-02T13:49:54.024Z,17.33
2022-10-02T13:52:20.380Z,17.20
2022-10-02T13:54:59.287Z,17.17
2022-10-02T13:57:28.420Z,17.08
2022-10-02T14:00:04.294Z,17.14
2022-10-02T14:02:46.910Z,17.06
2022-10-02T14:05:15.976Z,17.07
2022-10-02T14:08:06.414Z,16.98
2022-10-02T14:10:32.793Z,17.02
2022-10-02T14:13:23.160Z,16.89
2022-10-02T14:16:09.997Z,17.05
2022-10-02T14:19:02.576Z,16.96
2022-10-02T14:21:38.253Z,16.92
2022-10-02T14:24:05.023Z,16.88
2022-10-02T14:26:31.356Z,16.83
2022-10-02T14:29:08.362Z,16.84
2022-10-02T14:31:38.225Z,16.75
2022-10-02T14:34:23.798Z,16.71
2022-10-02T14:36:53.208Z,16.71
2022-10-02T14:39:19.551Z,16.77
2022-10-02T14:42:01.333Z,16.81
2022-10-02T14:44:30.565Z,16.79
2022-10-02T14:47:15.625Z,16.73
2022-10-02T14:49:48.164Z,16.72
2022-10-02T14:52:17.641Z,16.70
2022-10-02T14:54:59.428Z,16.69
2022-10-02T14:57:36.357Z,16.62
2022-10-02T15:00:11.207Z,16.56
2022-10-02T15:02:49.833Z,16.54
2022-10-02T15:05:41.201Z,16.58
2022-10-02T15:08:20.190Z,16.70
2022-10-02T15:10:49.166Z,16.66
2022-10-02T15:13:51.159Z,16.65
2022-10-02T15:16:38.361Z,16.55
2022-10-02T15:19:10.789Z,16.64
2022-10-02T15:21:53.117Z,16.62
2022-10-02T15:24:27.784Z,16.65
2022-10-02T15:27:08.419Z,16.67
2022-10-02T15:29:40.945Z,16.67
2022-10-02T15:32:22.146Z,16.66
2022-10-02T15:35:00.770Z,16.69
2022-10-02T15:37:27.105Z,16.70
2022-10-02T15:40:02.816Z,16.71
2022-10-02T15:42:50.116Z,16.64
2022-10-02T15:45:17.172Z,16.67
2022-10-02T15:47:46.712Z,16.66
2022-10-02T15:50:19.193Z,16.60
2022-10-02T15:52:53.952Z,16.54
2022-10-02T15:55:23.846Z,16.50
2022-10-02T15:58:28.749Z,16.50
2022-10-02T16:01:01.409Z,16.51
2022-10-02T16:03:35.894Z,16.46
2022-10-02T16:06:20.996Z,16.55
2022-10-02T16:09:06.343Z,16.44
2022-10-02T16:11:51.438Z,16.36
2022-10-02T16:14:27.080Z,16.39
2022-10-02T16:16:56.713Z,16.34
2022-10-02T16:19:41.878Z,16.26
2022-10-02T16:22:15.601Z,16.24
2022-10-02T16:25:03.000Z,16.24
2022-10-02T16:27:48.151Z,16.16
2022-10-02T16:30:15.937Z,16.20
2022-10-02T16:32:42.478Z,16.18
2022-10-02T16:35:34.971Z,16.13
2022-10-02T16:38:06.272Z,16.09
2022-10-02T16:40:51.073Z,16.18
2022-10-02T16:43:20.426Z,16.03
2022-10-02T16:46:09.523Z,16.03
2022-10-02T16:48:40.269Z,16.01
2022-10-02T16:51:14.520Z,15.99
2022-10-02T16:53:41.116Z,15.95
2022-10-02T16:56:22.511Z,15.95
2022-10-02T16:59:00.549Z,15.95
2022-10-02T17:01:30.710Z,15.90
2022-10-02T17:04:15.808Z,15.89
2022-10-02T17:06:47.740Z,15.83
2022-10-02T17:09:18.304Z,15.81
2022-10-02T17:11:44.618Z,15.81
2022-10-02T17:14:25.190Z,15.74
2022-10-02T17:16:55.372Z,15.78
2022-10-02T17:19:30.675Z,15.67
2022-10-02T17:22:08.902Z,15.77
2022-10-02T17:24:51.156Z,15.85
2022-10-02T17:27:32.935Z,15.92
2022-10-02T17:30:13.424Z,15.95
2022-10-02T17:32:45.906Z,15.59
2022-10-02T17:35:32.593Z,15.75
2022-10-02T17:38:26.460Z,15.77
2022-10-02T17:41:04.702Z,15.83
2022-10-02T17:43:37.172Z,15.76
2022-10-02T17:46:23.493Z,15.75
2022-10-02T17:49:04.047Z,15.36
2022-10-02T17:51:52.258Z,15.30
2022-10-02T17:54:37.284Z,15.21
2022-10-02T17:57:31.577Z,15.04
2022-10-02T18:00:02.848Z,15.08
2022-10-02T18:02:50.261Z,15.05
2022-10-02T18:05:22.748Z,15.03
2022-10-02T18:08:01.312Z,15.19
2022-10-02T18:10:39.946Z,15.04
2022-10-02T18:13:21.542Z,15.06
2022-10-02T18:15:55.466Z,15.15
2022-10-02T18:18:40.412Z,15.12
2022-10-02T18:21:13.016Z,15.14
2022-10-02T18:23:39.385Z,15.01
2022-10-02T18:26:18.037Z,15.05
2022-10-02T18:28:48.862Z,14.95
2022-10-02T18:31:44.282Z,14.90
2022-10-02T18:34:28.518Z,14.93
2022-10-02T18:37:09.637Z,14.68
2022-10-02T18:40:14.390Z,14.62
2022-10-02T18:42:59.935Z,14.76
2022-10-02T18:45:46.684Z,14.75
2022-10-02T18:48:19.978Z,14.90
2022-10-02T18:50:46.400Z,14.94
2022-10-02T18:53:15.832Z,14.92
2022-10-02T18:55:51.849Z,14.80
2022-10-02T18:58:41.831Z,14.70
2022-10-02T19:01:17.480Z,14.68
2022-10-02T19:03:57.059Z,14.79
2022-10-02T19:06:26.281Z,14.75
2022-10-02T19:08:55.680Z,14.68
2022-10-02T19:11:27.229Z,14.59
2022-10-02T19:13:53.894Z,14.46
2022-10-02T19:16:25.707Z,14.42
2022-10-02T19:19:09.823Z,14.43
2022-10-02T19:21:37.495Z,14.18
2022-10-02T19:24:15.115Z,14.17
2022-10-02T19:26:44.385Z,14.17
2022-10-02T19:29:29.642Z,14.27
2022-10-02T19:31:57.817Z,14.22
2022-10-02T19:34:27.584Z,14.21
2022-10-02T19:36:57.148Z,14.27
2022-10-02T19:39:30.430Z,14.33
2022-10-02T19:41:59.362Z,14.38
2022-10-02T19:44:29.238Z,14.35
2022-10-02T19:46:57.562Z,14.21
2022-10-02T19:49:30.912Z,14.08
2022-10-02T19:51:57.764Z,13.92
2022-10-02T19:54:36.152Z,13.97
2022-10-02T19:57:14.786Z,14.01
2022-10-02T19:59:44.848Z,13.93
2022-10-02T20:02:34.482Z,13.98
2022-10-02T20:05:02.940Z,14.12
2022-10-02T20:07:31.397Z,14.18
2022-10-02T20:10:00.514Z,14.11
2022-10-02T20:12:37.055Z,14.06
2022-10-02T20:15:05.277Z,13.84
2022-10-02T20:17:32.340Z,13.89
2022-10-02T20:20:01.642Z,13.91
2022-10-02T20:22:37.204Z,13.86
2022-10-02T20:25:06.483Z,13.83
2022-10-02T20:27:52.425Z,13.82
2022-10-02T20:30:20.256Z,13.84
2022-10-02T20:32:57.560Z,13.78
2022-10-02T20:35:23.982Z,13.77
2022-10-02T20:37:52.076Z,13.84
2022-10-02T20:40:20.361Z,13.87
2022-10-02T20:43:05.425Z,13.87
2022-10-02T20:45:50.612Z,13.84
2022-10-02T20:49:06.519Z,13.76
2022-10-02T20:54:39.844Z,13.80
2022-10-02T20:57:14.729Z,13.78
2022-10-02T20:59:45.068Z,13.78
2022-10-02T21:02:14.562Z,13.74
2022-10-02T21:05:00.209Z,13.75
2022-10-02T21:07:42.711Z,13.57
2022-10-02T21:10:25.371Z,13.63
2022-10-02T21:13:24.104Z,13.60
2022-10-02T21:15:51.705Z,13.60
2022-10-02T21:18:18.020Z,13.50
2022-10-02T21:20:51.817Z,13.43
2022-10-02T21:23:21.456Z,13.47
2022-10-02T21:26:06.694Z,13.48
2022-10-02T21:28:45.470Z,13.44
2022-10-02T21:31:22.318Z,13.45
2022-10-02T21:33:50.456Z,13.41
2022-10-02T21:36:31.348Z,13.41
2022-10-02T21:38:57.722Z,13.34
2022-10-02T21:41:39.885Z,13.22
2022-10-02T21:44:28.862Z,13.24
2022-10-02T21:47:19.140Z,13.22
2022-10-02T21:49:45.467Z,13.25
2022-10-02T21:52:17.883Z,13.24
2022-10-02T21:55:03.253Z,13.26
2022-10-02T21:57:50.892Z,13.20
2022-10-02T22:00:22.167Z,13.19
2022-10-02T22:03:12.299Z,13.18
2022-10-02T22:05:56.776Z,13.12
2022-10-02T22:08:35.108Z,13.10
2022-10-02T22:11:01.462Z,13.03
2022-10-02T22:13:27.752Z,13.05
2022-10-02T22:16:13.431Z,13.05
2022-10-02T22:18:52.578Z,13.01
2022-10-02T22:21:18.880Z,12.99
2022-10-02T22:24:04.016Z,12.92
2022-10-02T22:26:31.037Z,12.94
2022-10-02T22:29:08.765Z,12.93
2022-10-02T22:31:54.071Z,12.91
2022-10-02T22:34:22.463Z,12.90
2022-10-02T22:37:17.144Z,12.88
2022-10-02T22:39:48.545Z,12.83
2022-10-02T22:42:27.413Z,12.82
2022-10-02T22:45:00.076Z,12.77
2022-10-02T22:47:43.512Z,12.72
2022-10-02T22:50:13.101Z,12.76
2022-10-02T22:52:48.731Z,12.68
2022-10-02T22:55:18.840Z,12.66
2022-10-02T22:57:50.520Z,12.66
2022-10-02T23:00:18.666Z,12.64
2022-10-02T23:02:54.111Z,12.61
2022-10-02T23:05:33.012Z,12.56
2022-10-02T23:08:18.397Z,12.53
2022-10-02T23:10:51.109Z,12.52
2022-10-02T23:13:28.176Z,12.47
2022-10-02T23:15:59.991Z,12.48
2022-10-02T23:18:35.757Z,12.44
2022-10-02T23:21:25.510Z,12.37
2022-10-02T23:23:55.391Z,12.37
2022-10-02T23:26:41.104Z,12.33
2022-10-02T23:29:26.257Z,12.31
2022-10-02T23:31:55.650Z,12.30
2022-10-02T23:34:41.194Z,12.27
2022-10-02T23:37:13.617Z,12.24
2022-10-02T23:39:48.097Z,12.24
2022-10-02T23:42:18.488Z,12.22
2022-10-02T23:44:51.334Z,12.21
2022-10-02T23:47:23.267Z,12.18
2022-10-02T23:49:54.098Z,12.17
2022-10-02T23:52:23.580Z,12.15
2022-10-02T23:54:58.984Z,12.12
2022-10-02T23:57:44.093Z,12.07
